Página principal
METAR-TAF:

METAR-TAF

Aeroportos :

Qurghonteppa, Tadjiquistão

latitude: 37-51-44N, longitude: 068-51-46E, altura: 449 m

Observação actual do tempo

O boletim foi feito há 43 minutos, às 13:30 UTC
Vento 4 kt de norte
Temperatura 8°C
Humidade 87%
Pressão 1020 hPa
Visibilidade: 2300 m
Poucas nuvensa uma altura de 5300 ft
Encobertoa uma altura de 15000 ft
neblina

METAR: UTDT 181330Z 36002MPS 2300 BR FEW053 OVC150 08/06 Q1020 R35/////// RMK QFE725/0967

Hora: 19:13 (14:13 UTC)

Previsão

O boletim foi feito há 2 horas e 13 minutos, às 12:00 UTC
Previsão válida de 18 às 13 UTC a 18 às 22 UTC
Vento 4 kt com direcção variável
Visibilidade: 3100 m
Nuvens dispersasa uma altura de 6000 ft
Nuvens fragmentadasa uma altura de 10000 ft
neblina, fumo
Temporariamente
de 18 às 17 UTC a 18 às 22 UTC
Visibilidade: 0800 m
nevoeiro, fumo

TAF: UTDT 181200Z 1813/1822 VRB02MPS 3100 BR FU SCT060 BKN100 TEMPO 1817/1822 0800 FG FU

Observações e previsões do tempo de mais de 4000 aeroportos (mensagens METAR e TAF).

As estações disponíveis são os pontos amarelos e vermelhos sobre o mapa.

Mova o rato sobre o mapa para ver o nome da estação.

Depois clique no ponto para visualizar as observações e previsões meteorológicas.

Para alterar o mapa : clique nos botões verdes com uma cruz preta para aumentar o zoom; no botão verde com uma pitada de zoom; ou nas setas verdes para mapas adjacentes.


METAR-TAF: